sensor_id;sensor_type;location;lat;lon;timestamp;temperature;humidity
34279;DHT22;20538;51.528;9.942;2022-12-07T00:01:34;2.80;99.90
34279;DHT22;20538;51.528;9.942;2022-12-07T00:04:02;2.80;99.90
34279;DHT22;20538;51.528;9.942;2022-12-07T00:06:36;2.80;99.90
34279;DHT22;20538;51.528;9.942;2022-12-07T00:09:03;2.80;99.90
34279;DHT22;20538;51.528;9.942;2022-12-07T00:11:29;2.80;99.90
34279;DHT22;20538;51.528;9.942;2022-12-07T00:13:57;2.80;99.90
34279;DHT22;20538;51.528;9.942;2022-12-07T00:16:26;2.80;99.90
34279;DHT22;20538;51.528;9.942;2022-12-07T00:18:52;2.80;99.90
34279;DHT22;20538;51.528;9.942;2022-12-07T00:21:19;2.80;99.90
34279;DHT22;20538;51.528;9.942;2022-12-07T00:23:46;2.80;99.90
34279;DHT22;20538;51.528;9.942;2022-12-07T00:26:15;2.80;99.90
34279;DHT22;20538;51.528;9.942;2022-12-07T00:28:41;2.80;99.90
34279;DHT22;20538;51.528;9.942;2022-12-07T00:31:09;2.80;99.90
34279;DHT22;20538;51.528;9.942;2022-12-07T00:33:35;2.80;99.90
34279;DHT22;20538;51.528;9.942;2022-12-07T00:36:02;2.80;99.90
34279;DHT22;20538;51.528;9.942;2022-12-07T00:38:30;2.80;99.90
34279;DHT22;20538;51.528;9.942;2022-12-07T00:41:01;2.80;99.90
34279;DHT22;20538;51.528;9.942;2022-12-07T00:43:28;2.80;99.90
34279;DHT22;20538;51.528;9.942;2022-12-07T00:45:54;2.80;99.90
34279;DHT22;20538;51.528;9.942;2022-12-07T00:48:21;2.80;99.90
34279;DHT22;20538;51.528;9.942;2022-12-07T00:50:47;2.80;99.90
34279;DHT22;20538;51.528;9.942;2022-12-07T00:53:13;2.80;99.90
34279;DHT22;20538;51.528;9.942;2022-12-07T00:55:39;2.80;99.90
34279;DHT22;20538;51.528;9.942;2022-12-07T00:58:04;2.70;99.90
34279;DHT22;20538;51.528;9.942;2022-12-07T01:00:30;2.70;99.90
34279;DHT22;20538;51.528;9.942;2022-12-07T01:02:56;2.70;99.90
34279;DHT22;20538;51.528;9.942;2022-12-07T01:05:22;2.70;99.90
34279;DHT22;20538;51.528;9.942;2022-12-07T01:07:47;2.70;99.90
34279;DHT22;20538;51.528;9.942;2022-12-07T01:10:13;2.70;99.90
34279;DHT22;20538;51.528;9.942;2022-12-07T01:12:40;2.80;99.90
34279;DHT22;20538;51.528;9.942;2022-12-07T01:15:06;2.70;99.90
34279;DHT22;20538;51.528;9.942;2022-12-07T01:17:32;2.70;99.90
34279;DHT22;20538;51.528;9.942;2022-12-07T01:19:57;2.80;99.90
34279;DHT22;20538;51.528;9.942;2022-12-07T01:22:23;2.80;99.90
34279;DHT22;20538;51.528;9.942;2022-12-07T01:24:49;2.80;99.90
34279;DHT22;20538;51.528;9.942;2022-12-07T01:27:14;2.80;99.90
34279;DHT22;20538;51.528;9.942;2022-12-07T01:29:40;2.80;99.90
34279;DHT22;20538;51.528;9.942;2022-12-07T01:32:06;2.80;99.90
34279;DHT22;20538;51.528;9.942;2022-12-07T01:34:32;2.80;99.90
34279;DHT22;20538;51.528;9.942;2022-12-07T01:36:57;2.80;99.90
34279;DHT22;20538;51.528;9.942;2022-12-07T01:39:23;2.80;99.90
34279;DHT22;20538;51.528;9.942;2022-12-07T01:41:49;2.80;99.90
34279;DHT22;20538;51.528;9.942;2022-12-07T01:44:27;2.80;99.90
34279;DHT22;20538;51.528;9.942;2022-12-07T01:46:59;2.80;99.90
34279;DHT22;20538;51.528;9.942;2022-12-07T01:49:28;2.80;99.90
34279;DHT22;20538;51.528;9.942;2022-12-07T01:54:44;2.80;99.90
34279;DHT22;20538;51.528;9.942;2022-12-07T01:57:11;2.80;99.90
34279;DHT22;20538;51.528;9.942;2022-12-07T01:59:39;2.80;99.90
34279;DHT22;20538;51.528;9.942;2022-12-07T02:02:11;2.80;99.90
34279;DHT22;20538;51.528;9.942;2022-12-07T02:04:39;2.80;99.90
34279;DHT22;20538;51.528;9.942;2022-12-07T02:07:05;2.90;99.90
34279;DHT22;20538;51.528;9.942;2022-12-07T02:09:31;2.90;99.90
34279;DHT22;20538;51.528;9.942;2022-12-07T02:11:57;2.90;99.90
34279;DHT22;20538;51.528;9.942;2022-12-07T02:14:23;2.90;99.90
34279;DHT22;20538;51.528;9.942;2022-12-07T02:17:14;2.90;99.90
34279;DHT22;20538;51.528;9.942;2022-12-07T02:28:12;2.90;99.90
34279;DHT22;20538;51.528;9.942;2022-12-07T02:30:47;2.90;99.90
34279;DHT22;20538;51.528;9.942;2022-12-07T02:33:24;2.90;99.90
34279;DHT22;20538;51.528;9.942;2022-12-07T02:35:58;2.90;99.90
34279;DHT22;20538;51.528;9.942;2022-12-07T02:40:53;2.90;99.90
34279;DHT22;20538;51.528;9.942;2022-12-07T02:43:21;3.00;99.90
34279;DHT22;20538;51.528;9.942;2022-12-07T02:45:51;3.00;99.90
34279;DHT22;20538;51.528;9.942;2022-12-07T02:48:18;3.00;99.90
34279;DHT22;20538;51.528;9.942;2022-12-07T02:50:52;3.00;99.90
34279;DHT22;20538;51.528;9.942;2022-12-07T02:53:34;3.00;99.90
34279;DHT22;20538;51.528;9.942;2022-12-07T02:56:07;3.00;99.90
34279;DHT22;20538;51.528;9.942;2022-12-07T03:07:00;3.00;99.90
34279;DHT22;20538;51.528;9.942;2022-12-07T03:09:38;3.00;99.90
34279;DHT22;20538;51.528;9.942;2022-12-07T03:12:12;3.10;99.90
34279;DHT22;20538;51.528;9.942;2022-12-07T03:14:45;3.10;99.90
34279;DHT22;20538;51.528;9.942;2022-12-07T03:17:20;3.10;99.90
34279;DHT22;20538;51.528;9.942;2022-12-07T03:19:48;3.10;99.90
34279;DHT22;20538;51.528;9.942;2022-12-07T03:22:15;3.10;99.90
34279;DHT22;20538;51.528;9.942;2022-12-07T03:24:52;3.20;99.90
34279;DHT22;20538;51.528;9.942;2022-12-07T03:27:22;3.20;99.90
34279;DHT22;20538;51.528;9.942;2022-12-07T03:35:07;3.20;99.90
34279;DHT22;20538;51.528;9.942;2022-12-07T03:37:47;3.20;99.90
34279;DHT22;20538;51.528;9.942;2022-12-07T03:40:23;3.30;99.90
34279;DHT22;20538;51.528;9.942;2022-12-07T03:42:52;3.30;99.90
34279;DHT22;20538;51.528;9.942;2022-12-07T03:45:20;3.30;99.90
34279;DHT22;20538;51.528;9.942;2022-12-07T03:48:07;3.30;99.90
34279;DHT22;20538;51.528;9.942;2022-12-07T03:54:09;3.40;99.90
34279;DHT22;20538;51.528;9.942;2022-12-07T03:56:31;3.30;99.90
34279;DHT22;20538;51.528;9.942;2022-12-07T03:58:58;3.40;99.90
34279;DHT22;20538;51.528;9.942;2022-12-07T04:01:24;3.40;99.90
34279;DHT22;20538;51.528;9.942;2022-12-07T04:03:50;3.40;99.90
34279;DHT22;20538;51.528;9.942;2022-12-07T04:06:16;3.40;99.90
34279;DHT22;20538;51.528;9.942;2022-12-07T04:08:42;3.40;99.90
34279;DHT22;20538;51.528;9.942;2022-12-07T04:11:08;3.40;99.90
34279;DHT22;20538;51.528;9.942;2022-12-07T04:13:33;3.40;99.90
34279;DHT22;20538;51.528;9.942;2022-12-07T04:16:19;3.50;99.90
34279;DHT22;20538;51.528;9.942;2022-12-07T04:18:45;3.50;99.90
34279;DHT22;20538;51.528;9.942;2022-12-07T04:21:11;3.50;99.90
34279;DHT22;20538;51.528;9.942;2022-12-07T04:23:36;3.50;99.90
34279;DHT22;20538;51.528;9.942;2022-12-07T04:26:02;3.50;99.90
34279;DHT22;20538;51.528;9.942;2022-12-07T04:28:27;3.40;99.90
34279;DHT22;20538;51.528;9.942;2022-12-07T04:30:53;3.30;99.90
34279;DHT22;20538;51.528;9.942;2022-12-07T04:33:19;3.30;99.90
34279;DHT22;20538;51.528;9.942;2022-12-07T04:35:44;3.20;99.90
34279;DHT22;20538;51.528;9.942;2022-12-07T04:38:10;3.20;99.90
34279;DHT22;20538;51.528;9.942;2022-12-07T04:40:35;3.00;99.90
34279;DHT22;20538;51.528;9.942;2022-12-07T04:43:01;2.80;99.90
34279;DHT22;20538;51.528;9.942;2022-12-07T04:45:27;2.80;99.90
34279;DHT22;20538;51.528;9.942;2022-12-07T04:47:52;2.80;99.90
34279;DHT22;20538;51.528;9.942;2022-12-07T04:50:18;2.90;99.90
34279;DHT22;20538;51.528;9.942;2022-12-07T04:52:44;3.00;99.90
34279;DHT22;20538;51.528;9.942;2022-12-07T04:55:09;3.00;99.90
34279;DHT22;20538;51.528;9.942;2022-12-07T04:57:35;3.00;99.90
34279;DHT22;20538;51.528;9.942;2022-12-07T05:00:00;2.90;99.90
34279;DHT22;20538;51.528;9.942;2022-12-07T05:02:26;2.90;99.90
34279;DHT22;20538;51.528;9.942;2022-12-07T05:04:52;2.90;99.90
34279;DHT22;20538;51.528;9.942;2022-12-07T05:07:17;3.00;99.90
34279;DHT22;20538;51.528;9.942;2022-12-07T05:09:43;3.00;99.90
34279;DHT22;20538;51.528;9.942;2022-12-07T05:12:08;3.00;99.90
34279;DHT22;20538;51.528;9.942;2022-12-07T05:14:34;3.10;99.90
34279;DHT22;20538;51.528;9.942;2022-12-07T05:17:00;3.10;99.90
34279;DHT22;20538;51.528;9.942;2022-12-07T05:19:25;3.20;99.90
34279;DHT22;20538;51.528;9.942;2022-12-07T05:21:51;3.20;99.90
34279;DHT22;20538;51.528;9.942;2022-12-07T05:24:17;3.20;99.90
34279;DHT22;20538;51.528;9.942;2022-12-07T05:26:43;3.30;99.90
34279;DHT22;20538;51.528;9.942;2022-12-07T05:29:14;3.20;99.90
34279;DHT22;20538;51.528;9.942;2022-12-07T05:31:41;3.10;99.90
34279;DHT22;20538;51.528;9.942;2022-12-07T05:34:06;3.20;99.90
34279;DHT22;20538;51.528;9.942;2022-12-07T05:36:32;3.10;99.90
34279;DHT22;20538;51.528;9.942;2022-12-07T05:38:58;3.10;99.90
34279;DHT22;20538;51.528;9.942;2022-12-07T05:41:24;3.20;99.90
34279;DHT22;20538;51.528;9.942;2022-12-07T05:44:08;3.30;99.90
34279;DHT22;20538;51.528;9.942;2022-12-07T05:46:34;3.30;99.90
34279;DHT22;20538;51.528;9.942;2022-12-07T05:49:00;3.40;99.90
34279;DHT22;20538;51.528;9.942;2022-12-07T05:51:25;3.40;99.90
34279;DHT22;20538;51.528;9.942;2022-12-07T05:53:51;3.40;99.90
34279;DHT22;20538;51.528;9.942;2022-12-07T05:56:17;3.40;99.90
34279;DHT22;20538;51.528;9.942;2022-12-07T05:58:43;3.40;99.90
34279;DHT22;20538;51.528;9.942;2022-12-07T06:01:27;3.50;99.90
34279;DHT22;20538;51.528;9.942;2022-12-07T06:03:53;3.50;99.90
34279;DHT22;20538;51.528;9.942;2022-12-07T06:06:19;3.40;99.90
34279;DHT22;20538;51.528;9.942;2022-12-07T06:08:45;3.40;99.90
34279;DHT22;20538;51.528;9.942;2022-12-07T06:11:10;3.50;99.90
34279;DHT22;20538;51.528;9.942;2022-12-07T06:13:54;3.50;99.90
34279;DHT22;20538;51.528;9.942;2022-12-07T06:16:20;3.40;99.90
34279;DHT22;20538;51.528;9.942;2022-12-07T06:18:46;3.40;99.90
34279;DHT22;20538;51.528;9.942;2022-12-07T06:21:11;3.40;99.90
34279;DHT22;20538;51.528;9.942;2022-12-07T06:23:37;3.50;99.90
34279;DHT22;20538;51.528;9.942;2022-12-07T06:26:03;3.30;99.90
34279;DHT22;20538;51.528;9.942;2022-12-07T06:28:28;3.30;99.90
34279;DHT22;20538;51.528;9.942;2022-12-07T06:30:58;3.40;99.90
34279;DHT22;20538;51.528;9.942;2022-12-07T06:33:25;3.30;99.90
34279;DHT22;20538;51.528;9.942;2022-12-07T06:35:50;3.40;99.90
34279;DHT22;20538;51.528;9.942;2022-12-07T06:38:16;3.30;99.90
34279;DHT22;20538;51.528;9.942;2022-12-07T06:40:42;3.30;99.90
34279;DHT22;20538;51.528;9.942;2022-12-07T06:43:08;3.20;99.90
34279;DHT22;20538;51.528;9.942;2022-12-07T06:45:33;3.20;99.90
34279;DHT22;20538;51.528;9.942;2022-12-07T06:47:59;3.20;99.90
34279;DHT22;20538;51.528;9.942;2022-12-07T06:50:24;3.20;99.90
34279;DHT22;20538;51.528;9.942;2022-12-07T06:52:51;3.20;99.90
34279;DHT22;20538;51.528;9.942;2022-12-07T06:55:17;3.30;99.90
34279;DHT22;20538;51.528;9.942;2022-12-07T06:57:43;3.30;99.90
34279;DHT22;20538;51.528;9.942;2022-12-07T07:00:09;3.30;99.90
34279;DHT22;20538;51.528;9.942;2022-12-07T07:02:34;3.30;99.90
34279;DHT22;20538;51.528;9.942;2022-12-07T07:05:00;3.30;99.90
34279;DHT22;20538;51.528;9.942;2022-12-07T07:07:26;3.30;99.90
34279;DHT22;20538;51.528;9.942;2022-12-07T07:09:51;3.40;99.90
34279;DHT22;20538;51.528;9.942;2022-12-07T07:12:17;3.40;99.90
34279;DHT22;20538;51.528;9.942;2022-12-07T07:14:43;3.40;99.90
34279;DHT22;20538;51.528;9.942;2022-12-07T07:17:08;3.50;99.90
34279;DHT22;20538;51.528;9.942;2022-12-07T07:19:34;3.40;99.90
34279;DHT22;20538;51.528;9.942;2022-12-07T07:22:00;3.40;99.90
34279;DHT22;20538;51.528;9.942;2022-12-07T07:24:25;3.50;99.90
34279;DHT22;20538;51.528;9.942;2022-12-07T07:26:51;3.60;99.90
34279;DHT22;20538;51.528;9.942;2022-12-07T07:29:17;3.60;99.90
34279;DHT22;20538;51.528;9.942;2022-12-07T07:31:42;3.60;99.90
34279;DHT22;20538;51.528;9.942;2022-12-07T07:34:08;3.60;99.90
34279;DHT22;20538;51.528;9.942;2022-12-07T07:36:34;3.60;99.90
34279;DHT22;20538;51.528;9.942;2022-12-07T07:38:59;3.60;99.90
34279;DHT22;20538;51.528;9.942;2022-12-07T07:41:25;3.70;99.90
34279;DHT22;20538;51.528;9.942;2022-12-07T07:43:50;3.70;99.90
34279;DHT22;20538;51.528;9.942;2022-12-07T07:46:16;3.70;99.90
34279;DHT22;20538;51.528;9.942;2022-12-07T07:48:42;3.70;99.90
34279;DHT22;20538;51.528;9.942;2022-12-07T07:51:08;3.70;99.90
34279;DHT22;20538;51.528;9.942;2022-12-07T07:53:34;3.70;99.90
34279;DHT22;20538;51.528;9.942;2022-12-07T07:55:59;3.70;99.90
34279;DHT22;20538;51.528;9.942;2022-12-07T07:58:25;3.70;99.90
34279;DHT22;20538;51.528;9.942;2022-12-07T08:00:51;3.80;99.90
34279;DHT22;20538;51.528;9.942;2022-12-07T08:03:17;3.80;99.90
34279;DHT22;20538;51.528;9.942;2022-12-07T08:05:42;3.80;99.90
34279;DHT22;20538;51.528;9.942;2022-12-07T08:08:08;3.90;99.90
34279;DHT22;20538;51.528;9.942;2022-12-07T08:10:34;3.90;99.90
34279;DHT22;20538;51.528;9.942;2022-12-07T08:13:01;3.90;99.90
34279;DHT22;20538;51.528;9.942;2022-12-07T08:15:41;3.90;99.90
34279;DHT22;20538;51.528;9.942;2022-12-07T08:18:08;3.90;99.90
34279;DHT22;20538;51.528;9.942;2022-12-07T08:20:35;3.90;99.90
34279;DHT22;20538;51.528;9.942;2022-12-07T08:23:01;3.90;99.90
34279;DHT22;20538;51.528;9.942;2022-12-07T08:25:28;3.90;99.90
34279;DHT22;20538;51.528;9.942;2022-12-07T08:27:54;4.00;99.90
34279;DHT22;20538;51.528;9.942;2022-12-07T08:30:20;3.90;99.90
34279;DHT22;20538;51.528;9.942;2022-12-07T08:32:47;3.90;99.90
34279;DHT22;20538;51.528;9.942;2022-12-07T08:35:14;3.90;99.90
34279;DHT22;20538;51.528;9.942;2022-12-07T08:37:40;3.80;99.90
34279;DHT22;20538;51.528;9.942;2022-12-07T08:40:07;3.80;99.90
34279;DHT22;20538;51.528;9.942;2022-12-07T08:42:33;3.90;99.90
34279;DHT22;20538;51.528;9.942;2022-12-07T08:45:11;3.90;99.90
34279;DHT22;20538;51.528;9.942;2022-12-07T08:47:43;3.90;99.90
34279;DHT22;20538;51.528;9.942;2022-12-07T08:50:11;3.90;99.90
34279;DHT22;20538;51.528;9.942;2022-12-07T08:52:37;4.00;99.90
34279;DHT22;20538;51.528;9.942;2022-12-07T08:55:05;4.00;99.90
34279;DHT22;20538;51.528;9.942;2022-12-07T08:57:33;3.90;99.90
34279;DHT22;20538;51.528;9.942;2022-12-07T08:59:59;3.70;99.90
34279;DHT22;20538;51.528;9.942;2022-12-07T09:02:25;3.70;99.90
34279;DHT22;20538;51.528;9.942;2022-12-07T09:04:51;3.60;99.90
34279;DHT22;20538;51.528;9.942;2022-12-07T09:07:17;3.70;99.90
34279;DHT22;20538;51.528;9.942;2022-12-07T09:09:43;3.70;99.90
34279;DHT22;20538;51.528;9.942;2022-12-07T09:12:08;3.80;99.90
34279;DHT22;20538;51.528;9.942;2022-12-07T09:14:35;3.90;99.90
34279;DHT22;20538;51.528;9.942;2022-12-07T09:17:09;3.90;99.90
34279;DHT22;20538;51.528;9.942;2022-12-07T09:19:35;4.00;99.90
34279;DHT22;20538;51.528;9.942;2022-12-07T09:22:01;4.10;99.90
34279;DHT22;20538;51.528;9.942;2022-12-07T09:24:26;4.20;99.90
34279;DHT22;20538;51.528;9.942;2022-12-07T09:26:52;4.30;99.90
34279;DHT22;20538;51.528;9.942;2022-12-07T09:29:18;4.50;99.90
34279;DHT22;20538;51.528;9.942;2022-12-07T09:31:43;4.50;99.90
34279;DHT22;20538;51.528;9.942;2022-12-07T09:34:09;4.60;99.90
34279;DHT22;20538;51.528;9.942;2022-12-07T09:36:35;4.60;99.90
34279;DHT22;20538;51.528;9.942;2022-12-07T09:39:00;4.60;99.90
34279;DHT22;20538;51.528;9.942;2022-12-07T09:41:28;4.60;99.90
34279;DHT22;20538;51.528;9.942;2022-12-07T09:44:41;4.60;99.90
34279;DHT22;20538;51.528;9.942;2022-12-07T09:46:48;4.60;99.90
34279;DHT22;20538;51.528;9.942;2022-12-07T09:49:19;4.60;99.90
34279;DHT22;20538;51.528;9.942;2022-12-07T09:51:45;4.60;99.90
34279;DHT22;20538;51.528;9.942;2022-12-07T09:54:16;4.60;99.90
34279;DHT22;20538;51.528;9.942;2022-12-07T09:56:42;4.40;99.90
34279;DHT22;20538;51.528;9.942;2022-12-07T09:59:17;4.50;99.90
34279;DHT22;20538;51.528;9.942;2022-12-07T10:01:45;4.50;99.90
34279;DHT22;20538;51.528;9.942;2022-12-07T10:04:30;4.70;99.90
34279;DHT22;20538;51.528;9.942;2022-12-07T10:06:56;4.70;99.90
34279;DHT22;20538;51.528;9.942;2022-12-07T10:09:21;4.70;99.90
34279;DHT22;20538;51.528;9.942;2022-12-07T10:14:30;4.70;99.90
34279;DHT22;20538;51.528;9.942;2022-12-07T10:16:56;4.80;99.90
34279;DHT22;20538;51.528;9.942;2022-12-07T10:19:23;4.70;99.90
34279;DHT22;20538;51.528;9.942;2022-12-07T10:22:10;4.80;99.90
34279;DHT22;20538;51.528;9.942;2022-12-07T10:24:37;4.90;99.90
34279;DHT22;20538;51.528;9.942;2022-12-07T10:27:05;4.80;99.90
34279;DHT22;20538;51.528;9.942;2022-12-07T10:29:39;4.80;99.90
34279;DHT22;20538;51.528;9.942;2022-12-07T10:34:39;4.60;99.90
34279;DHT22;20538;51.528;9.942;2022-12-07T10:39:51;4.70;99.90
34279;DHT22;20538;51.528;9.942;2022-12-07T10:42:30;4.70;99.90
34279;DHT22;20538;51.528;9.942;2022-12-07T11:10:22;4.70;99.90
34279;DHT22;20538;51.528;9.942;2022-12-07T11:24:10;4.50;99.90
34279;DHT22;20538;51.528;9.942;2022-12-07T11:26:58;4.60;99.90
34279;DHT22;20538;51.528;9.942;2022-12-07T11:37:57;4.70;99.90
34279;DHT22;20538;51.528;9.942;2022-12-07T11:40:30;5.00;99.90
34279;DHT22;20538;51.528;9.942;2022-12-07T11:43:26;5.10;99.90
34279;DHT22;20538;51.528;9.942;2022-12-07T11:46:08;5.00;99.90
34279;DHT22;20538;51.528;9.942;2022-12-07T11:49:11;4.80;99.90
34279;DHT22;20538;51.528;9.942;2022-12-07T11:51:33;4.70;99.90
34279;DHT22;20538;51.528;9.942;2022-12-07T11:54:05;4.70;99.90
34279;DHT22;20538;51.528;9.942;2022-12-07T11:56:37;4.50;99.90
34279;DHT22;20538;51.528;9.942;2022-12-07T11:59:32;4.70;99.90
34279;DHT22;20538;51.528;9.942;2022-12-07T12:02:16;4.60;99.90
34279;DHT22;20538;51.528;9.942;2022-12-07T12:07:33;4.60;99.90
34279;DHT22;20538;51.528;9.942;2022-12-07T12:10:03;4.60;99.90
34279;DHT22;20538;51.528;9.942;2022-12-07T12:21:41;4.80;99.90
34279;DHT22;20538;51.528;9.942;2022-12-07T12:24:18;4.80;99.90
34279;DHT22;20538;51.528;9.942;2022-12-07T12:26:53;4.70;99.90
34279;DHT22;20538;51.528;9.942;2022-12-07T12:29:33;4.60;99.90
34279;DHT22;20538;51.528;9.942;2022-12-07T12:42:47;4.70;99.90
34279;DHT22;20538;51.528;9.942;2022-12-07T12:50:21;4.80;99.90
34279;DHT22;20538;51.528;9.942;2022-12-07T12:52:59;4.80;99.90
34279;DHT22;20538;51.528;9.942;2022-12-07T12:55:58;4.80;99.90
34279;DHT22;20538;51.528;9.942;2022-12-07T12:58:37;4.90;99.90
34279;DHT22;20538;51.528;9.942;2022-12-07T13:04:21;4.80;99.90
34279;DHT22;20538;51.528;9.942;2022-12-07T13:06:48;4.90;99.90
34279;DHT22;20538;51.528;9.942;2022-12-07T13:09:31;4.90;99.90
34279;DHT22;20538;51.528;9.942;2022-12-07T13:12:05;4.80;99.90
34279;DHT22;20538;51.528;9.942;2022-12-07T13:14:54;4.80;99.90
34279;DHT22;20538;51.528;9.942;2022-12-07T13:20:07;4.80;99.90
34279;DHT22;20538;51.528;9.942;2022-12-07T13:27:43;4.90;99.90
34279;DHT22;20538;51.528;9.942;2022-12-07T13:30:18;4.70;99.90
34279;DHT22;20538;51.528;9.942;2022-12-07T13:32:54;4.70;99.90
34279;DHT22;20538;51.528;9.942;2022-12-07T13:35:35;4.70;99.90
34279;DHT22;20538;51.528;9.942;2022-12-07T13:38:13;4.70;99.90
34279;DHT22;20538;51.528;9.942;2022-12-07T13:40:40;4.70;99.90
34279;DHT22;20538;51.528;9.942;2022-12-07T13:43:19;4.80;99.90
34279;DHT22;20538;51.528;9.942;2022-12-07T13:45:56;4.70;99.90
34279;DHT22;20538;51.528;9.942;2022-12-07T13:48:35;4.70;99.90
34279;DHT22;20538;51.528;9.942;2022-12-07T13:51:03;4.60;99.90
34279;DHT22;20538;51.528;9.942;2022-12-07T13:53:29;4.70;99.90
34279;DHT22;20538;51.528;9.942;2022-12-07T13:56:00;4.70;99.90
34279;DHT22;20538;51.528;9.942;2022-12-07T13:58:30;4.70;99.90
34279;DHT22;20538;51.528;9.942;2022-12-07T14:00:56;4.70;99.90
34279;DHT22;20538;51.528;9.942;2022-12-07T14:03:36;4.70;99.90
34279;DHT22;20538;51.528;9.942;2022-12-07T14:06:25;4.80;99.90
34279;DHT22;20538;51.528;9.942;2022-12-07T14:09:21;4.80;99.90
34279;DHT22;20538;51.528;9.942;2022-12-07T14:11:50;4.80;99.90
34279;DHT22;20538;51.528;9.942;2022-12-07T14:14:19;4.70;99.90
34279;DHT22;20538;51.528;9.942;2022-12-07T14:16:59;4.70;99.90
34279;DHT22;20538;51.528;9.942;2022-12-07T14:19:44;4.70;99.90
34279;DHT22;20538;51.528;9.942;2022-12-07T14:24:50;4.60;99.90
34279;DHT22;20538;51.528;9.942;2022-12-07T14:27:23;4.60;99.90
34279;DHT22;20538;51.528;9.942;2022-12-07T14:29:56;4.70;99.90
34279;DHT22;20538;51.528;9.942;2022-12-07T14:32:25;4.50;99.90
34279;DHT22;20538;51.528;9.942;2022-12-07T14:34:58;4.50;99.90
34279;DHT22;20538;51.528;9.942;2022-12-07T14:37:25;4.50;99.90
34279;DHT22;20538;51.528;9.942;2022-12-07T14:39:51;4.50;99.90
34279;DHT22;20538;51.528;9.942;2022-12-07T14:42:17;4.50;99.90
34279;DHT22;20538;51.528;9.942;2022-12-07T14:44:43;4.60;99.90
34279;DHT22;20538;51.528;9.942;2022-12-07T14:47:10;4.50;99.90
34279;DHT22;20538;51.528;9.942;2022-12-07T14:49:36;4.40;99.90
34279;DHT22;20538;51.528;9.942;2022-12-07T14:52:02;4.40;99.90
34279;DHT22;20538;51.528;9.942;2022-12-07T14:54:31;4.40;99.90
34279;DHT22;20538;51.528;9.942;2022-12-07T14:56:57;4.40;99.90
34279;DHT22;20538;51.528;9.942;2022-12-07T14:59:26;4.30;99.90
34279;DHT22;20538;51.528;9.942;2022-12-07T15:01:52;4.30;99.90
34279;DHT22;20538;51.528;9.942;2022-12-07T15:04:17;4.30;99.90
34279;DHT22;20538;51.528;9.942;2022-12-07T15:06:56;4.30;99.90
34279;DHT22;20538;51.528;9.942;2022-12-07T15:09:22;4.30;99.90
34279;DHT22;20538;51.528;9.942;2022-12-07T15:11:48;4.30;99.90
34279;DHT22;20538;51.528;9.942;2022-12-07T15:14:14;4.30;99.90
34279;DHT22;20538;51.528;9.942;2022-12-07T15:16:42;4.20;99.90
34279;DHT22;20538;51.528;9.942;2022-12-07T15:19:19;4.30;99.90
34279;DHT22;20538;51.528;9.942;2022-12-07T15:21:45;4.20;99.90
34279;DHT22;20538;51.528;9.942;2022-12-07T15:24:14;4.20;99.90
34279;DHT22;20538;51.528;9.942;2022-12-07T15:26:40;4.20;99.90
34279;DHT22;20538;51.528;9.942;2022-12-07T15:29:07;4.20;99.90
34279;DHT22;20538;51.528;9.942;2022-12-07T15:31:33;4.20;99.90
34279;DHT22;20538;51.528;9.942;2022-12-07T15:33:59;4.20;99.90
34279;DHT22;20538;51.528;9.942;2022-12-07T15:36:27;4.20;99.90
34279;DHT22;20538;51.528;9.942;2022-12-07T15:38:53;4.20;99.90
34279;DHT22;20538;51.528;9.942;2022-12-07T15:41:20;4.20;99.90
34279;DHT22;20538;51.528;9.942;2022-12-07T15:43:46;4.20;99.90
34279;DHT22;20538;51.528;9.942;2022-12-07T15:46:32;4.20;99.90
34279;DHT22;20538;51.528;9.942;2022-12-07T15:48:58;4.20;99.90
34279;DHT22;20538;51.528;9.942;2022-12-07T15:51:23;4.30;99.90
34279;DHT22;20538;51.528;9.942;2022-12-07T15:53:49;4.30;99.90
34279;DHT22;20538;51.528;9.942;2022-12-07T15:56:18;4.20;99.90
34279;DHT22;20538;51.528;9.942;2022-12-07T15:58:44;4.20;99.90
34279;DHT22;20538;51.528;9.942;2022-12-07T16:01:14;4.10;99.90
34279;DHT22;20538;51.528;9.942;2022-12-07T16:03:40;3.90;99.90
34279;DHT22;20538;51.528;9.942;2022-12-07T16:06:10;3.80;99.90
34279;DHT22;20538;51.528;9.942;2022-12-07T16:08:43;3.80;99.90
34279;DHT22;20538;51.528;9.942;2022-12-07T16:11:09;3.80;99.90
34279;DHT22;20538;51.528;9.942;2022-12-07T16:13:35;3.80;99.90
34279;DHT22;20538;51.528;9.942;2022-12-07T16:16:07;3.80;99.90
34279;DHT22;20538;51.528;9.942;2022-12-07T16:18:33;3.90;99.90
34279;DHT22;20538;51.528;9.942;2022-12-07T16:21:02;3.90;99.90
34279;DHT22;20538;51.528;9.942;2022-12-07T16:23:28;3.90;99.90
34279;DHT22;20538;51.528;9.942;2022-12-07T16:25:54;3.80;99.90
34279;DHT22;20538;51.528;9.942;2022-12-07T16:28:20;3.70;99.90
34279;DHT22;20538;51.528;9.942;2022-12-07T16:30:45;3.70;99.90
34279;DHT22;20538;51.528;9.942;2022-12-07T16:33:11;3.60;99.90
34279;DHT22;20538;51.528;9.942;2022-12-07T16:35:40;3.60;99.90
34279;DHT22;20538;51.528;9.942;2022-12-07T16:38:07;3.60;99.90
34279;DHT22;20538;51.528;9.942;2022-12-07T16:40:32;3.70;99.90
34279;DHT22;20538;51.528;9.942;2022-12-07T16:42:58;3.60;99.90
34279;DHT22;20538;51.528;9.942;2022-12-07T16:45:23;3.60;99.90
34279;DHT22;20538;51.528;9.942;2022-12-07T16:47:49;3.60;99.90
34279;DHT22;20538;51.528;9.942;2022-12-07T16:50:15;3.70;99.90
34279;DHT22;20538;51.528;9.942;2022-12-07T16:52:41;3.70;99.90
34279;DHT22;20538;51.528;9.942;2022-12-07T16:55:07;3.80;99.90
34279;DHT22;20538;51.528;9.942;2022-12-07T16:57:32;3.80;99.90
34279;DHT22;20538;51.528;9.942;2022-12-07T16:59:58;3.80;99.90
34279;DHT22;20538;51.528;9.942;2022-12-07T17:02:24;3.90;99.90
34279;DHT22;20538;51.528;9.942;2022-12-07T17:04:52;3.90;99.90
34279;DHT22;20538;51.528;9.942;2022-12-07T17:07:21;3.90;99.90
34279;DHT22;20538;51.528;9.942;2022-12-07T17:09:51;3.90;99.90
34279;DHT22;20538;51.528;9.942;2022-12-07T17:12:17;4.00;99.90
34279;DHT22;20538;51.528;9.942;2022-12-07T17:14:46;4.00;99.90
34279;DHT22;20538;51.528;9.942;2022-12-07T17:17:57;4.00;99.90
34279;DHT22;20538;51.528;9.942;2022-12-07T17:20:26;3.90;99.90
34279;DHT22;20538;51.528;9.942;2022-12-07T17:22:53;3.90;99.90
34279;DHT22;20538;51.528;9.942;2022-12-07T17:25:19;3.80;99.90
34279;DHT22;20538;51.528;9.942;2022-12-07T17:27:46;3.70;99.90
34279;DHT22;20538;51.528;9.942;2022-12-07T17:30:12;3.60;99.90
34279;DHT22;20538;51.528;9.942;2022-12-07T17:32:39;3.60;99.90
34279;DHT22;20538;51.528;9.942;2022-12-07T17:35:05;3.50;99.90
34279;DHT22;20538;51.528;9.942;2022-12-07T17:37:31;3.50;99.90
34279;DHT22;20538;51.528;9.942;2022-12-07T17:39:57;3.50;99.90
34279;DHT22;20538;51.528;9.942;2022-12-07T17:42:30;3.50;99.90
34279;DHT22;20538;51.528;9.942;2022-12-07T17:45:03;3.50;99.90
34279;DHT22;20538;51.528;9.942;2022-12-07T17:47:29;3.50;99.90
34279;DHT22;20538;51.528;9.942;2022-12-07T17:49:55;3.40;99.90
34279;DHT22;20538;51.528;9.942;2022-12-07T17:52:21;3.50;99.90
34279;DHT22;20538;51.528;9.942;2022-12-07T17:55:16;3.50;99.90
34279;DHT22;20538;51.528;9.942;2022-12-07T17:57:42;3.50;99.90
34279;DHT22;20538;51.528;9.942;2022-12-07T18:00:09;3.50;99.90
34279;DHT22;20538;51.528;9.942;2022-12-07T18:02:36;3.50;99.90